Logo AVAMET
Benvolgut visitant, si us plau, ingressa Recuperar contrasenya

Inforatge Piles

Dades diàries. Acumulats / Últims 30 dies disponibles

Data Temperatura (°C) Humitat rel. (%) Pressió rel. (hPa) Vent (km/h) Precipitació
Mínima Mitjana Màxima Amplitud
tèrmica
Mínima Mitjana Màxima Mínima Mitjana Màxima Predom. Mitjana Ràfega
màxima
Total
(mm)
Índex-n
Mínima Mitjana Màxima Mínima Mitjana Màxima n
0 a 1
P0 max
mm 5'
Dades mensuals acumulades fins l'últim dia disponible
01/2020 5,9 7,9 11,4 11,2 12,5 15,4 19,6 13,7 37 76 99 1.016 1.029 1.036   6,9 80,5 107,2
Dades anuals acumulades fins l'últim dia disponible
2020 5,9 7,9 11,4 11,2 12,5 15,4 19,6 13,7 37 76 99 1.016 1.029 1.036   6,9 80,5 107,2
Últims 30 dies disponibles
21-01-2020 8,3     10,0     12,9 4,6 98 98 99 1.018 1.019 1.021 S 11,5 40,2 0,83 6,30
20-01-2020 7,0     9,6     12,5 5,5 88 96 98 1.019 1.021 1.023 NNE 25,6 80,5 70,4 0,75 5,50
19-01-2020 8,3     10,7     14,1 5,8 70 84 97 1.016 1.019 1.023 NNE 17,7 80,5 34,2 0,42 3,30
18-01-2020 9,9     14,0     18,7 8,8 48 63 75 1.022 1.029 1.034 WSW 4,3 32,2 0,0
17-01-2020 10,4     15,2     19,6 9,2 42 54 80 1.029 1.031 1.034 W 7,2 33,8 0,0
16-01-2020 11,4     13,4     16,4 5,0 60 70 82 1.028 1.030 1.032 WSW 4,8 24,1 0,0
15-01-2020 8,4     13,1     19,3 10,9 44 61 71 1.025 1.027 1.030 W 6,6 29,0 0,0
14-01-2020 8,3     11,4     16,8 8,5 41 61 78 1.023 1.024 1.026 W 7,2 29,0 0,0
13-01-2020 5,9     10,7     16,2 10,3 37 57 72 1.024 1.027 1.032 WSW 6,0 22,5 0,0
12-01-2020 6,4     9,4     13,8 7,4 54 70 86 1.031 1.032 1.033 W 4,3 16,1 0,0
11-01-2020 7,1     10,7     14,6 7,5 65 77 86 1.030 1.032 1.034 W 3,5 16,1 0,0
10-01-2020 8,0     11,6     15,2 7,2 58 77 91 1.025 1.027 1.031 NNE 8,4 46,7 2,6 0,30 0,60
09-01-2020 8,3     10,8     15,6 7,3 67 83 92 1.026 1.030 1.033 W 5,0 17,7 0,0
08-01-2020 6,7     10,8     15,4 8,7 66 78 92 1.030 1.032 1.034 W 3,5 17,7 0,0
07-01-2020 6,9     10,6     15,4 8,5 67 80 89 1.030 1.032 1.035 W 4,0 17,7 0,0
06-01-2020 8,3     10,8     14,9 6,6 68 80 90 1.030 1.031 1.033 WSW 5,3 20,9 0,0
05-01-2020 8,2     11,0     15,1 6,9 62 74 85 1.029 1.031 1.033 W 4,3 19,3 0,0
04-01-2020 7,7     10,9     16,1 8,4 57 77 90 1.033 1.035 1.036 WSW 4,7 19,3 0,0
03-01-2020 6,2     10,0     13,7 7,5 70 84 91 1.032 1.033 1.035 W 3,2 14,5 0,0
02-01-2020 6,9     9,6     13,5 6,6 78 86 92 1.032 1.034 1.036 W 3,7 14,5 0,0
01-01-2020 7,3     10,3     14,4 7,1 71 81 91 1.033 1.034 1.036 W 3,4 16,1 0,0
31-12-2019 7,4     10,1     13,8 6,4 74 84 92 1.034 1.035 1.037 SO 3,5 17,7 0,0
30-12-2019 8,9     11,4     13,9 5,0 74 83 89 1.034 1.035 1.037 W 2,9 12,9 0,0
29-12-2019 8,3     11,1     15,2 6,9 69 84 91 1.033 1.034 1.036 WSW 5,1 20,9 0,0
28-12-2019 7,9     11,2     15,7 7,8 72 82 89 1.031 1.032 1.034 W 3,2 14,5 0,0
27-12-2019 10,1     13,1     16,9 6,8 62 78 90 1.029 1.031 1.033 W 3,4 14,5 0,0
26-12-2019 11,7     16,7     23,9 12,2 37 59 82 1.024 1.027 1.032 W 4,2 24,1 0,0
25-12-2019 11,9     15,1     19,0 7,1 58 76 88 1.025 1.026 1.028 W 3,9 19,3 0,0
24-12-2019 14,2     18,2     24,0 9,8 43 56 71 1.027 1.029 1.030 WSW 8,7 30,6 0,0
23-12-2019 15,1     18,2     22,6 7,5 32 54 64 1.022 1.027 1.029 W 10,1 35,4 0,0
Últims 13 mesos disponibles
12/2019 7,4 11,8 19,4 14,7 13,8 18,5 26,7 19,3 46 71 94 1.005 1.021 1.035 W 8,2 75,6 175,0
11/2019 7,3 13,0 21,7 16,2 15,1 19,9 27,4 20,1 47 59 77 1.002 1.014 1.021 W 9,8 75,6 8,4
10/2019 12,2 17,3 21,2 20,7 16,1 24,5 30,9 18,7 45 71 90 1.012 1.020 1.025 WSW 6,6 48,3 77,6
09/2019 14,9 20,9 23,4 24,0 23,2 27,4 34,9 20,0 50 78 92 1.014 1.021 1.027 S 8,7 85,4 72,4
08/2019 18,9 23,3 26,9 26,6 26,6 30,6 38,2 19,3 59 75 85 1.014 1.019 1.024 SSE 8,6 55,6 18,0
07/2019 21,9 23,5 26,2 26,7 26,6 30,3 37,8 15,9 44 74 85 1.009 1.017 1.025 SSE 9,0 51,9 0,2
06/2019 14,2 18,6 22,4 22,6 20,2 26,8 33,0 18,8 41 71 87 1.012 1.019 1.025 SSE 9,0 48,3 0,0
05/2019 10,9 15,4 21,9 19,1 17,7 23,6 31,2 20,3 50 71 84 1.009 1.019 1.028 SSE 8,6 51,9 7,0
04/2019 8,7 12,4 15,3 15,8 14,8 19,6 28,2 19,5 42 70 94 1.003 1.016 1.029 S 10,0 69,3 191,8
03/2019 8,1 10,4 15,0 14,8 11,8 19,1 28,4 20,3 32 64 92 1.015 1.026 1.033 S 7,7 46,7 41,8
02/2019 5,8 8,8 11,9 12,7 12,9 16,8 22,4 16,6 35 65 83 999 1.028 1.037 SSO 7,9 75,9 0,0
01/2019 3,3 8,6 13,8 12,2 10,7 16,5 21,1 17,8 42 58 77 1.006 1.022 1.034 SSO 8,7 64,8 2,0
12/2018 7,2 10,4 14,7 14,0 14,4 18,3 24,4 17,2 53 69 88 1.012 1.028 1.034 SSO 7,1 48,3 22,8
Tots els anys disponibles
2019 3,3 15,4 26,9 18,9 10,7 22,9 38,2 34,9 32 69 94 999 1.020 1.037 SSE 8,6 85,4 594,2
Temperatura (°C)
Humitat relativa (%)
Velocitat del vent i ràfega màxima (km/h)
Direcció del vent (°)
Pressió (hPa)
Precipitació (mm)
Nota sobre les dades: s'avisa a l'usuari de la provisionalitat i no oficialitat d'aquestes dades
Logo AVAMET blanc
Web allotjada a Sollutia
Llicència de Creative CommonsLa web d'AVAMET i els seus continguts estan subjectes a una llicència de
Reconeixement - No Comercial - Compartir igual
Últimes estacions: Xixona - Els Ameradors (Soci), Agres - El Tossal (Soci), Xàbia - Bevenguts (MeteoXàbia), Llíria (Aj. Soci/Inforatge), Orihuela - Lo Capitán, Cox & Guardamar del Segura - horta (Meteorihuela), l'Alcúdia - Carriona & el Real de Gandia (Inforatge), Benicàssim - les Vil·les (Soci),  l'Alfàs del Pi - l'Albir (Soci), - - -